sensor_id;sensor_type;location;lat;lon;timestamp;temperature;humidity
52275;DHT22;38228;50.940;4.024;2022-08-02T00:00:00;21.50;97.50
52275;DHT22;38228;50.940;4.024;2022-08-02T00:02:25;21.50;97.70
52275;DHT22;38228;50.940;4.024;2022-08-02T00:04:51;21.40;97.80
52275;DHT22;38228;50.940;4.024;2022-08-02T00:07:17;21.30;98.00
52275;DHT22;38228;50.940;4.024;2022-08-02T00:09:43;21.30;97.90
52275;DHT22;38228;50.940;4.024;2022-08-02T00:12:10;21.40;97.80
52275;DHT22;38228;50.940;4.024;2022-08-02T00:14:36;21.40;97.70
52275;DHT22;38228;50.940;4.024;2022-08-02T00:17:03;21.40;97.80
52275;DHT22;38228;50.940;4.024;2022-08-02T00:19:29;21.40;97.80
52275;DHT22;38228;50.940;4.024;2022-08-02T00:21:55;21.40;97.90
52275;DHT22;38228;50.940;4.024;2022-08-02T00:24:21;21.30;98.10
52275;DHT22;38228;50.940;4.024;2022-08-02T00:26:46;21.30;98.30
52275;DHT22;38228;50.940;4.024;2022-08-02T00:29:12;21.10;98.40
52275;DHT22;38228;50.940;4.024;2022-08-02T00:31:38;21.20;98.50
52275;DHT22;38228;50.940;4.024;2022-08-02T00:34:03;21.30;98.60
52275;DHT22;38228;50.940;4.024;2022-08-02T00:36:29;21.30;98.70
52275;DHT22;38228;50.940;4.024;2022-08-02T00:38:55;21.20;98.90
52275;DHT22;38228;50.940;4.024;2022-08-02T00:41:21;21.00;99.40
52275;DHT22;38228;50.940;4.024;2022-08-02T00:43:48;20.90;99.50
52275;DHT22;38228;50.940;4.024;2022-08-02T00:46:15;20.90;99.50
52275;DHT22;38228;50.940;4.024;2022-08-02T00:48:41;20.90;99.60
52275;DHT22;38228;50.940;4.024;2022-08-02T00:51:07;20.80;99.70
52275;DHT22;38228;50.940;4.024;2022-08-02T00:53:33;20.80;99.60
52275;DHT22;38228;50.940;4.024;2022-08-02T00:55:59;20.80;99.60
52275;DHT22;38228;50.940;4.024;2022-08-02T00:58:25;20.90;99.60
52275;DHT22;38228;50.940;4.024;2022-08-02T01:00:51;20.80;99.50
52275;DHT22;38228;50.940;4.024;2022-08-02T01:03:17;20.90;99.50
52275;DHT22;38228;50.940;4.024;2022-08-02T01:05:42;21.00;99.40
52275;DHT22;38228;50.940;4.024;2022-08-02T01:08:09;20.90;99.40
52275;DHT22;38228;50.940;4.024;2022-08-02T01:10:34;20.90;99.50
52275;DHT22;38228;50.940;4.024;2022-08-02T01:13:00;21.00;99.40
52275;DHT22;38228;50.940;4.024;2022-08-02T01:15:26;20.90;99.50
52275;DHT22;38228;50.940;4.024;2022-08-02T01:23:24;21.00;99.60
52275;DHT22;38228;50.940;4.024;2022-08-02T01:31:49;21.00;99.70
52275;DHT22;38228;50.940;4.024;2022-08-02T01:34:20;21.00;99.80
52275;DHT22;38228;50.940;4.024;2022-08-02T01:36:53;21.00;99.70
52275;DHT22;38228;50.940;4.024;2022-08-02T01:39:23;21.00;99.60
52275;DHT22;38228;50.940;4.024;2022-08-02T01:41:51;21.00;99.50
52275;DHT22;38228;50.940;4.024;2022-08-02T01:44:18;21.00;99.70
52275;DHT22;38228;50.940;4.024;2022-08-02T01:46:45;21.00;99.90
52275;DHT22;38228;50.940;4.024;2022-08-02T01:49:16;21.10;99.90
52275;DHT22;38228;50.940;4.024;2022-08-02T01:51:45;21.10;99.90
52275;DHT22;38228;50.940;4.024;2022-08-02T01:54:32;21.10;99.90
52275;DHT22;38228;50.940;4.024;2022-08-02T01:57:01;21.00;99.90
52275;DHT22;38228;50.940;4.024;2022-08-02T01:59:30;20.90;99.90
52275;DHT22;38228;50.940;4.024;2022-08-02T02:01:58;20.80;99.90
52275;DHT22;38228;50.940;4.024;2022-08-02T02:04:25;20.90;99.90
52275;DHT22;38228;50.940;4.024;2022-08-02T02:06:53;20.90;99.90
52275;DHT22;38228;50.940;4.024;2022-08-02T02:09:21;20.90;99.90
52275;DHT22;38228;50.940;4.024;2022-08-02T02:11:47;20.80;99.90
52275;DHT22;38228;50.940;4.024;2022-08-02T02:14:14;20.80;99.90
52275;DHT22;38228;50.940;4.024;2022-08-02T02:16:43;20.70;99.90
52275;DHT22;38228;50.940;4.024;2022-08-02T02:19:11;20.80;99.90
52275;DHT22;38228;50.940;4.024;2022-08-02T02:21:38;20.90;99.90
52275;DHT22;38228;50.940;4.024;2022-08-02T02:24:04;20.90;99.90
52275;DHT22;38228;50.940;4.024;2022-08-02T02:26:31;20.80;99.90
52275;DHT22;38228;50.940;4.024;2022-08-02T02:29:01;20.70;99.90
52275;DHT22;38228;50.940;4.024;2022-08-02T02:31:31;20.60;99.90
52275;DHT22;38228;50.940;4.024;2022-08-02T02:34:07;20.50;99.90
52275;DHT22;38228;50.940;4.024;2022-08-02T02:36:36;20.50;99.90
52275;DHT22;38228;50.940;4.024;2022-08-02T02:39:05;20.50;99.90
52275;DHT22;38228;50.940;4.024;2022-08-02T02:41:32;20.50;99.90
52275;DHT22;38228;50.940;4.024;2022-08-02T02:44:01;20.50;99.90
52275;DHT22;38228;50.940;4.024;2022-08-02T02:46:30;20.50;99.90
52275;DHT22;38228;50.940;4.024;2022-08-02T02:48:57;20.50;99.90
52275;DHT22;38228;50.940;4.024;2022-08-02T02:51:23;20.40;99.90
52275;DHT22;38228;50.940;4.024;2022-08-02T02:53:50;20.40;99.90
52275;DHT22;38228;50.940;4.024;2022-08-02T02:56:17;20.50;99.90
52275;DHT22;38228;50.940;4.024;2022-08-02T02:58:44;20.50;99.90
52275;DHT22;38228;50.940;4.024;2022-08-02T03:01:11;20.40;99.90
52275;DHT22;38228;50.940;4.024;2022-08-02T03:03:59;20.50;99.90
52275;DHT22;38228;50.940;4.024;2022-08-02T03:06:26;20.60;99.90
52275;DHT22;38228;50.940;4.024;2022-08-02T03:08:52;20.70;99.90
52275;DHT22;38228;50.940;4.024;2022-08-02T03:11:18;20.70;99.90
52275;DHT22;38228;50.940;4.024;2022-08-02T03:13:44;20.70;99.90
52275;DHT22;38228;50.940;4.024;2022-08-02T03:16:11;20.70;99.90
52275;DHT22;38228;50.940;4.024;2022-08-02T03:18:42;20.60;99.90
52275;DHT22;38228;50.940;4.024;2022-08-02T03:21:12;20.40;99.90
52275;DHT22;38228;50.940;4.024;2022-08-02T03:23:39;20.40;99.90
52275;DHT22;38228;50.940;4.024;2022-08-02T03:26:05;20.40;99.90
52275;DHT22;38228;50.940;4.024;2022-08-02T03:28:31;20.40;99.90
52275;DHT22;38228;50.940;4.024;2022-08-02T03:30:57;20.40;99.90
52275;DHT22;38228;50.940;4.024;2022-08-02T03:33:24;20.40;99.90
52275;DHT22;38228;50.940;4.024;2022-08-02T03:35:52;20.20;99.90
52275;DHT22;38228;50.940;4.024;2022-08-02T03:38:21;20.10;99.90
52275;DHT22;38228;50.940;4.024;2022-08-02T03:40:47;20.20;99.90
52275;DHT22;38228;50.940;4.024;2022-08-02T03:43:14;20.10;99.90
52275;DHT22;38228;50.940;4.024;2022-08-02T03:45:45;20.10;99.90
52275;DHT22;38228;50.940;4.024;2022-08-02T03:48:14;20.10;99.90
52275;DHT22;38228;50.940;4.024;2022-08-02T03:50:41;20.00;99.90
52275;DHT22;38228;50.940;4.024;2022-08-02T03:53:08;20.10;99.90
52275;DHT22;38228;50.940;4.024;2022-08-02T03:55:38;20.10;99.90
52275;DHT22;38228;50.940;4.024;2022-08-02T03:58:05;20.00;99.90
52275;DHT22;38228;50.940;4.024;2022-08-02T04:00:31;19.90;99.90
52275;DHT22;38228;50.940;4.024;2022-08-02T04:02:57;19.90;99.90
52275;DHT22;38228;50.940;4.024;2022-08-02T04:05:23;19.80;99.90
52275;DHT22;38228;50.940;4.024;2022-08-02T04:07:49;19.90;99.90
52275;DHT22;38228;50.940;4.024;2022-08-02T04:10:16;19.80;99.90
52275;DHT22;38228;50.940;4.024;2022-08-02T04:12:41;19.60;99.90
52275;DHT22;38228;50.940;4.024;2022-08-02T04:15:09;19.40;99.90
52275;DHT22;38228;50.940;4.024;2022-08-02T04:17:40;19.40;99.90
52275;DHT22;38228;50.940;4.024;2022-08-02T04:20:19;19.30;99.90
52275;DHT22;38228;50.940;4.024;2022-08-02T04:23:00;19.30;99.90
52275;DHT22;38228;50.940;4.024;2022-08-02T04:25:26;19.30;99.90
52275;DHT22;38228;50.940;4.024;2022-08-02T04:27:52;19.40;99.90
52275;DHT22;38228;50.940;4.024;2022-08-02T04:30:19;19.40;99.90
52275;DHT22;38228;50.940;4.024;2022-08-02T04:32:45;19.40;99.90
52275;DHT22;38228;50.940;4.024;2022-08-02T04:35:12;19.50;99.90
52275;DHT22;38228;50.940;4.024;2022-08-02T04:37:38;19.40;99.90
52275;DHT22;38228;50.940;4.024;2022-08-02T04:40:13;19.50;99.90
52275;DHT22;38228;50.940;4.024;2022-08-02T04:42:40;19.40;99.90
52275;DHT22;38228;50.940;4.024;2022-08-02T04:45:07;19.40;99.90
52275;DHT22;38228;50.940;4.024;2022-08-02T04:47:33;19.40;99.90
52275;DHT22;38228;50.940;4.024;2022-08-02T04:49:59;19.40;99.90
52275;DHT22;38228;50.940;4.024;2022-08-02T04:52:25;19.30;99.90
52275;DHT22;38228;50.940;4.024;2022-08-02T04:54:51;19.20;99.90
52275;DHT22;38228;50.940;4.024;2022-08-02T04:57:21;19.10;99.90
52275;DHT22;38228;50.940;4.024;2022-08-02T05:00:06;19.30;99.90
52275;DHT22;38228;50.940;4.024;2022-08-02T05:02:33;19.40;99.90
52275;DHT22;38228;50.940;4.024;2022-08-02T05:04:59;19.40;99.90
52275;DHT22;38228;50.940;4.024;2022-08-02T05:07:25;19.40;99.90
52275;DHT22;38228;50.940;4.024;2022-08-02T05:09:50;19.40;99.90
52275;DHT22;38228;50.940;4.024;2022-08-02T05:12:16;19.30;99.90
52275;DHT22;38228;50.940;4.024;2022-08-02T05:14:42;19.40;99.90
52275;DHT22;38228;50.940;4.024;2022-08-02T05:17:07;19.40;99.90
52275;DHT22;38228;50.940;4.024;2022-08-02T05:19:33;19.50;99.90
52275;DHT22;38228;50.940;4.024;2022-08-02T05:21:59;19.40;99.90
52275;DHT22;38228;50.940;4.024;2022-08-02T05:24:24;19.40;99.90
52275;DHT22;38228;50.940;4.024;2022-08-02T05:26:50;19.50;99.90
52275;DHT22;38228;50.940;4.024;2022-08-02T05:29:16;19.50;99.90
52275;DHT22;38228;50.940;4.024;2022-08-02T05:31:42;19.60;99.90
52275;DHT22;38228;50.940;4.024;2022-08-02T05:34:08;19.60;99.90
52275;DHT22;38228;50.940;4.024;2022-08-02T05:36:33;19.70;99.90
52275;DHT22;38228;50.940;4.024;2022-08-02T05:38:59;19.80;99.90
52275;DHT22;38228;50.940;4.024;2022-08-02T05:41:25;19.80;99.90
52275;DHT22;38228;50.940;4.024;2022-08-02T05:43:50;19.80;99.90
52275;DHT22;38228;50.940;4.024;2022-08-02T05:46:16;20.00;99.90
52275;DHT22;38228;50.940;4.024;2022-08-02T05:48:42;20.00;99.90
52275;DHT22;38228;50.940;4.024;2022-08-02T05:51:18;20.10;99.90
52275;DHT22;38228;50.940;4.024;2022-08-02T05:54:19;20.10;99.90
52275;DHT22;38228;50.940;4.024;2022-08-02T05:56:57;20.30;99.90
52275;DHT22;38228;50.940;4.024;2022-08-02T05:59:33;20.20;99.90
52275;DHT22;38228;50.940;4.024;2022-08-02T06:02:07;20.20;99.90
52275;DHT22;38228;50.940;4.024;2022-08-02T06:04:58;20.20;99.90
52275;DHT22;38228;50.940;4.024;2022-08-02T06:07:29;20.20;99.90
52275;DHT22;38228;50.940;4.024;2022-08-02T06:09:55;20.00;99.90
52275;DHT22;38228;50.940;4.024;2022-08-02T06:12:28;20.10;99.90
52275;DHT22;38228;50.940;4.024;2022-08-02T06:14:56;20.20;99.90
52275;DHT22;38228;50.940;4.024;2022-08-02T06:17:23;20.30;99.90
52275;DHT22;38228;50.940;4.024;2022-08-02T06:19:49;20.30;99.90
52275;DHT22;38228;50.940;4.024;2022-08-02T06:22:19;20.30;99.90
52275;DHT22;38228;50.940;4.024;2022-08-02T06:24:45;20.40;99.90
52275;DHT22;38228;50.940;4.024;2022-08-02T06:27:15;20.30;99.90
52275;DHT22;38228;50.940;4.024;2022-08-02T06:29:42;20.30;99.90
52275;DHT22;38228;50.940;4.024;2022-08-02T06:32:08;20.10;99.90
52275;DHT22;38228;50.940;4.024;2022-08-02T06:34:38;20.30;99.90
52275;DHT22;38228;50.940;4.024;2022-08-02T06:40:07;20.60;99.90
52275;DHT22;38228;50.940;4.024;2022-08-02T06:45:32;20.50;99.90
52275;DHT22;38228;50.940;4.024;2022-08-02T06:47:58;20.50;99.90
52275;DHT22;38228;50.940;4.024;2022-08-02T06:50:24;20.60;99.90
52275;DHT22;38228;50.940;4.024;2022-08-02T06:52:50;20.50;99.90
52275;DHT22;38228;50.940;4.024;2022-08-02T06:55:16;20.50;99.90
52275;DHT22;38228;50.940;4.024;2022-08-02T06:57:42;20.70;99.90
52275;DHT22;38228;50.940;4.024;2022-08-02T07:00:08;20.60;99.90
52275;DHT22;38228;50.940;4.024;2022-08-02T07:02:37;20.70;99.90
52275;DHT22;38228;50.940;4.024;2022-08-02T07:05:06;20.70;99.90
52275;DHT22;38228;50.940;4.024;2022-08-02T07:07:33;20.60;99.90
52275;DHT22;38228;50.940;4.024;2022-08-02T07:09:59;20.70;99.90
52275;DHT22;38228;50.940;4.024;2022-08-02T07:12:25;20.90;99.90
52275;DHT22;38228;50.940;4.024;2022-08-02T07:14:52;20.90;99.90
52275;DHT22;38228;50.940;4.024;2022-08-02T07:17:17;21.00;99.90
52275;DHT22;38228;50.940;4.024;2022-08-02T07:19:43;21.10;99.90
52275;DHT22;38228;50.940;4.024;2022-08-02T07:22:09;21.20;99.90
52275;DHT22;38228;50.940;4.024;2022-08-02T07:24:37;21.30;99.90
52275;DHT22;38228;50.940;4.024;2022-08-02T07:27:03;21.40;99.90
52275;DHT22;38228;50.940;4.024;2022-08-02T07:29:29;21.40;99.90
52275;DHT22;38228;50.940;4.024;2022-08-02T07:31:55;21.60;99.90
52275;DHT22;38228;50.940;4.024;2022-08-02T07:34:20;21.50;99.90
52275;DHT22;38228;50.940;4.024;2022-08-02T07:36:46;21.60;99.90
52275;DHT22;38228;50.940;4.024;2022-08-02T07:39:12;21.60;99.90
52275;DHT22;38228;50.940;4.024;2022-08-02T07:41:38;21.80;99.90
52275;DHT22;38228;50.940;4.024;2022-08-02T07:44:03;22.00;99.90
52275;DHT22;38228;50.940;4.024;2022-08-02T07:46:29;21.90;99.90
52275;DHT22;38228;50.940;4.024;2022-08-02T07:48:57;21.90;99.90
52275;DHT22;38228;50.940;4.024;2022-08-02T07:51:23;22.10;99.90
52275;DHT22;38228;50.940;4.024;2022-08-02T07:53:49;22.10;99.90
52275;DHT22;38228;50.940;4.024;2022-08-02T07:56:15;22.00;99.90
52275;DHT22;38228;50.940;4.024;2022-08-02T07:58:40;22.00;99.90
52275;DHT22;38228;50.940;4.024;2022-08-02T08:01:07;22.00;99.90
52275;DHT22;38228;50.940;4.024;2022-08-02T08:03:33;22.20;99.90
52275;DHT22;38228;50.940;4.024;2022-08-02T08:05:59;22.20;99.90
52275;DHT22;38228;50.940;4.024;2022-08-02T08:08:25;22.20;99.90
52275;DHT22;38228;50.940;4.024;2022-08-02T08:10:50;22.50;99.90
52275;DHT22;38228;50.940;4.024;2022-08-02T08:13:16;22.90;99.90
52275;DHT22;38228;50.940;4.024;2022-08-02T08:15:42;23.10;99.90
52275;DHT22;38228;50.940;4.024;2022-08-02T08:18:08;23.10;99.90
52275;DHT22;38228;50.940;4.024;2022-08-02T08:20:34;23.10;99.90
52275;DHT22;38228;50.940;4.024;2022-08-02T08:23:00;23.40;99.90
52275;DHT22;38228;50.940;4.024;2022-08-02T08:25:26;23.60;99.90
52275;DHT22;38228;50.940;4.024;2022-08-02T08:27:51;23.70;99.90
52275;DHT22;38228;50.940;4.024;2022-08-02T08:30:18;24.00;99.90
52275;DHT22;38228;50.940;4.024;2022-08-02T08:32:45;24.30;99.90
52275;DHT22;38228;50.940;4.024;2022-08-02T08:35:10;24.40;99.90
52275;DHT22;38228;50.940;4.024;2022-08-02T08:37:37;24.60;99.90
52275;DHT22;38228;50.940;4.024;2022-08-02T08:40:07;24.80;99.90
52275;DHT22;38228;50.940;4.024;2022-08-02T08:42:35;24.90;99.90
52275;DHT22;38228;50.940;4.024;2022-08-02T08:45:01;24.80;99.90
52275;DHT22;38228;50.940;4.024;2022-08-02T08:47:32;24.80;99.90
52275;DHT22;38228;50.940;4.024;2022-08-02T08:50:04;24.60;99.90
52275;DHT22;38228;50.940;4.024;2022-08-02T08:52:34;24.40;99.90
52275;DHT22;38228;50.940;4.024;2022-08-02T08:55:03;24.30;99.90
52275;DHT22;38228;50.940;4.024;2022-08-02T08:57:29;24.30;99.90
52275;DHT22;38228;50.940;4.024;2022-08-02T08:59:56;24.40;99.90
52275;DHT22;38228;50.940;4.024;2022-08-02T09:02:23;24.50;99.90
52275;DHT22;38228;50.940;4.024;2022-08-02T09:04:49;24.60;99.90
52275;DHT22;38228;50.940;4.024;2022-08-02T09:07:15;24.70;99.90
52275;DHT22;38228;50.940;4.024;2022-08-02T09:09:40;24.70;99.90
52275;DHT22;38228;50.940;4.024;2022-08-02T09:12:18;24.60;99.90
52275;DHT22;38228;50.940;4.024;2022-08-02T09:14:46;24.50;99.90
52275;DHT22;38228;50.940;4.024;2022-08-02T09:17:12;24.70;99.90
52275;DHT22;38228;50.940;4.024;2022-08-02T09:19:39;24.80;99.90
52275;DHT22;38228;50.940;4.024;2022-08-02T09:22:07;24.90;99.90
52275;DHT22;38228;50.940;4.024;2022-08-02T09:24:44;25.00;99.90
52275;DHT22;38228;50.940;4.024;2022-08-02T09:27:15;25.10;99.90
52275;DHT22;38228;50.940;4.024;2022-08-02T09:29:46;25.20;99.90
52275;DHT22;38228;50.940;4.024;2022-08-02T09:32:12;25.30;99.90
52275;DHT22;38228;50.940;4.024;2022-08-02T09:34:53;25.40;99.90
52275;DHT22;38228;50.940;4.024;2022-08-02T09:37:29;25.40;99.90
52275;DHT22;38228;50.940;4.024;2022-08-02T09:39:56;25.10;99.90
52275;DHT22;38228;50.940;4.024;2022-08-02T09:42:24;25.30;99.90
52275;DHT22;38228;50.940;4.024;2022-08-02T09:47:19;25.40;99.90
52275;DHT22;38228;50.940;4.024;2022-08-02T09:49:46;25.50;99.90
52275;DHT22;38228;50.940;4.024;2022-08-02T09:52:12;25.60;99.90
52275;DHT22;38228;50.940;4.024;2022-08-02T09:54:39;25.90;99.90
52275;DHT22;38228;50.940;4.024;2022-08-02T09:57:06;26.00;99.90
52275;DHT22;38228;50.940;4.024;2022-08-02T09:59:32;26.10;99.90
52275;DHT22;38228;50.940;4.024;2022-08-02T10:01:59;26.10;99.90
52275;DHT22;38228;50.940;4.024;2022-08-02T10:04:28;26.10;99.90
52275;DHT22;38228;50.940;4.024;2022-08-02T10:06:54;26.20;99.00
52275;DHT22;38228;50.940;4.024;2022-08-02T10:09:21;26.40;99.10
52275;DHT22;38228;50.940;4.024;2022-08-02T10:11:47;26.50;99.40
52275;DHT22;38228;50.940;4.024;2022-08-02T10:14:13;26.50;99.20
52275;DHT22;38228;50.940;4.024;2022-08-02T10:16:41;26.70;99.10
52275;DHT22;38228;50.940;4.024;2022-08-02T10:19:07;26.80;98.60
52275;DHT22;38228;50.940;4.024;2022-08-02T10:21:48;26.60;99.20
52275;DHT22;38228;50.940;4.024;2022-08-02T10:24:21;26.60;99.60
52275;DHT22;38228;50.940;4.024;2022-08-02T10:26:48;26.60;99.20
52275;DHT22;38228;50.940;4.024;2022-08-02T10:29:20;26.60;98.80
52275;DHT22;38228;50.940;4.024;2022-08-02T10:31:55;26.50;98.70
52275;DHT22;38228;50.940;4.024;2022-08-02T10:34:30;26.70;99.00
52275;DHT22;38228;50.940;4.024;2022-08-02T10:37:01;26.90;98.20
52275;DHT22;38228;50.940;4.024;2022-08-02T10:39:27;27.00;98.50
52275;DHT22;38228;50.940;4.024;2022-08-02T10:42:02;26.90;98.30
52275;DHT22;38228;50.940;4.024;2022-08-02T10:44:32;26.90;98.20
52275;DHT22;38228;50.940;4.024;2022-08-02T10:52:20;27.30;97.10
52275;DHT22;38228;50.940;4.024;2022-08-02T10:57:34;27.70;96.20
52275;DHT22;38228;50.940;4.024;2022-08-02T11:00:09;27.60;96.20
52275;DHT22;38228;50.940;4.024;2022-08-02T11:02:40;27.60;95.70
52275;DHT22;38228;50.940;4.024;2022-08-02T11:05:11;27.70;96.10
52275;DHT22;38228;50.940;4.024;2022-08-02T11:07:42;27.60;95.90
52275;DHT22;38228;50.940;4.024;2022-08-02T11:13:12;28.10;95.70
52275;DHT22;38228;50.940;4.024;2022-08-02T11:16:03;28.00;95.30
52275;DHT22;38228;50.940;4.024;2022-08-02T11:19:02;27.80;94.40
52275;DHT22;38228;50.940;4.024;2022-08-02T11:21:33;28.10;94.70
52275;DHT22;38228;50.940;4.024;2022-08-02T11:24:24;28.00;95.40
52275;DHT22;38228;50.940;4.024;2022-08-02T11:26:52;28.10;95.30
52275;DHT22;38228;50.940;4.024;2022-08-02T11:29:17;28.20;94.80
52275;DHT22;38228;50.940;4.024;2022-08-02T11:31:45;28.10;94.70
52275;DHT22;38228;50.940;4.024;2022-08-02T11:34:11;28.00;94.70
52275;DHT22;38228;50.940;4.024;2022-08-02T11:36:46;28.00;95.10
52275;DHT22;38228;50.940;4.024;2022-08-02T11:39:15;28.10;94.80
52275;DHT22;38228;50.940;4.024;2022-08-02T11:41:41;28.10;95.20
52275;DHT22;38228;50.940;4.024;2022-08-02T11:44:07;28.20;95.00
52275;DHT22;38228;50.940;4.024;2022-08-02T11:46:33;28.30;94.70
52275;DHT22;38228;50.940;4.024;2022-08-02T11:49:13;28.50;94.90
52275;DHT22;38228;50.940;4.024;2022-08-02T11:51:53;28.80;94.50
52275;DHT22;38228;50.940;4.024;2022-08-02T11:54:29;28.70;94.10
52275;DHT22;38228;50.940;4.024;2022-08-02T11:57:18;28.80;94.20
52275;DHT22;38228;50.940;4.024;2022-08-02T11:59:46;28.90;94.10
52275;DHT22;38228;50.940;4.024;2022-08-02T12:02:13;28.40;94.50
52275;DHT22;38228;50.940;4.024;2022-08-02T12:04:40;28.60;94.80
52275;DHT22;38228;50.940;4.024;2022-08-02T12:07:06;28.70;94.50
52275;DHT22;38228;50.940;4.024;2022-08-02T12:09:34;28.60;94.70
52275;DHT22;38228;50.940;4.024;2022-08-02T12:12:00;28.80;94.50
52275;DHT22;38228;50.940;4.024;2022-08-02T12:14:28;29.10;93.90
52275;DHT22;38228;50.940;4.024;2022-08-02T12:16:55;29.10;93.80
52275;DHT22;38228;50.940;4.024;2022-08-02T12:19:40;29.20;93.80
52275;DHT22;38228;50.940;4.024;2022-08-02T12:22:17;29.40;93.70
52275;DHT22;38228;50.940;4.024;2022-08-02T12:24:51;29.40;93.60
52275;DHT22;38228;50.940;4.024;2022-08-02T12:27:37;29.50;93.70
52275;DHT22;38228;50.940;4.024;2022-08-02T12:30:22;29.40;93.30
52275;DHT22;38228;50.940;4.024;2022-08-02T12:32:48;29.10;93.70
52275;DHT22;38228;50.940;4.024;2022-08-02T12:35:18;29.30;93.70
52275;DHT22;38228;50.940;4.024;2022-08-02T12:37:47;29.20;93.60
52275;DHT22;38228;50.940;4.024;2022-08-02T12:40:30;29.60;93.50
52275;DHT22;38228;50.940;4.024;2022-08-02T12:43:01;29.80;93.00
52275;DHT22;38228;50.940;4.024;2022-08-02T12:45:33;29.90;92.70
52275;DHT22;38228;50.940;4.024;2022-08-02T12:48:08;29.90;92.20
52275;DHT22;38228;50.940;4.024;2022-08-02T12:50:35;30.10;92.50
52275;DHT22;38228;50.940;4.024;2022-08-02T12:53:16;30.00;92.40
52275;DHT22;38228;50.940;4.024;2022-08-02T12:55:51;29.80;92.70
52275;DHT22;38228;50.940;4.024;2022-08-02T12:58:17;29.80;93.00
52275;DHT22;38228;50.940;4.024;2022-08-02T13:00:54;29.80;92.90
52275;DHT22;38228;50.940;4.024;2022-08-02T13:03:20;30.00;92.50
52275;DHT22;38228;50.940;4.024;2022-08-02T13:05:46;29.90;92.40
52275;DHT22;38228;50.940;4.024;2022-08-02T13:08:12;29.90;92.40
52275;DHT22;38228;50.940;4.024;2022-08-02T13:10:38;29.90;91.80
52275;DHT22;38228;50.940;4.024;2022-08-02T13:13:04;29.90;92.40
52275;DHT22;38228;50.940;4.024;2022-08-02T13:15:30;30.30;92.00
52275;DHT22;38228;50.940;4.024;2022-08-02T13:17:57;30.50;91.60
52275;DHT22;38228;50.940;4.024;2022-08-02T13:20:24;30.40;91.50
52275;DHT22;38228;50.940;4.024;2022-08-02T13:22:52;30.40;91.60
52275;DHT22;38228;50.940;4.024;2022-08-02T13:25:18;30.30;91.80
52275;DHT22;38228;50.940;4.024;2022-08-02T13:27:51;30.50;91.70
52275;DHT22;38228;50.940;4.024;2022-08-02T13:30:17;30.80;91.40
52275;DHT22;38228;50.940;4.024;2022-08-02T13:32:43;31.20;90.60
52275;DHT22;38228;50.940;4.024;2022-08-02T13:35:09;31.20;90.80
52275;DHT22;38228;50.940;4.024;2022-08-02T13:37:35;31.20;90.80
52275;DHT22;38228;50.940;4.024;2022-08-02T13:40:01;31.30;90.40
52275;DHT22;38228;50.940;4.024;2022-08-02T13:42:27;31.30;90.30
52275;DHT22;38228;50.940;4.024;2022-08-02T13:44:52;31.10;90.80
52275;DHT22;38228;50.940;4.024;2022-08-02T13:47:18;30.60;91.60
52275;DHT22;38228;50.940;4.024;2022-08-02T13:49:44;30.60;91.80
52275;DHT22;38228;50.940;4.024;2022-08-02T13:52:10;31.10;91.00
52275;DHT22;38228;50.940;4.024;2022-08-02T13:54:36;31.70;90.50
52275;DHT22;38228;50.940;4.024;2022-08-02T13:57:02;32.20;90.10
52275;DHT22;38228;50.940;4.024;2022-08-02T13:59:27;32.40;89.00
52275;DHT22;38228;50.940;4.024;2022-08-02T14:01:54;32.80;88.50
52275;DHT22;38228;50.940;4.024;2022-08-02T14:04:21;33.50;87.40
52275;DHT22;38228;50.940;4.024;2022-08-02T14:06:47;33.60;86.30
52275;DHT22;38228;50.940;4.024;2022-08-02T14:09:13;33.40;86.10
52275;DHT22;38228;50.940;4.024;2022-08-02T14:11:39;33.60;85.80
52275;DHT22;38228;50.940;4.024;2022-08-02T14:14:04;33.90;84.50
52275;DHT22;38228;50.940;4.024;2022-08-02T14:16:30;33.40;84.70
52275;DHT22;38228;50.940;4.024;2022-08-02T14:18:56;33.20;85.60
52275;DHT22;38228;50.940;4.024;2022-08-02T14:21:22;33.30;86.00
52275;DHT22;38228;50.940;4.024;2022-08-02T14:23:47;33.20;85.60
52275;DHT22;38228;50.940;4.024;2022-08-02T14:26:14;33.40;85.50
52275;DHT22;38228;50.940;4.024;2022-08-02T14:28:39;33.10;84.10
52275;DHT22;38228;50.940;4.024;2022-08-02T14:31:05;33.00;84.60
52275;DHT22;38228;50.940;4.024;2022-08-02T14:33:31;32.70;85.50
52275;DHT22;38228;50.940;4.024;2022-08-02T14:35:57;32.80;85.80
52275;DHT22;38228;50.940;4.024;2022-08-02T14:38:23;33.00;85.40
52275;DHT22;38228;50.940;4.024;2022-08-02T14:40:49;33.40;84.80
52275;DHT22;38228;50.940;4.024;2022-08-02T14:43:15;34.30;82.80
52275;DHT22;38228;50.940;4.024;2022-08-02T14:46:01;34.90;81.80
52275;DHT22;38228;50.940;4.024;2022-08-02T14:48:28;35.50;80.00
52275;DHT22;38228;50.940;4.024;2022-08-02T14:50:53;35.40;79.10
52275;DHT22;38228;50.940;4.024;2022-08-02T14:53:19;35.10;79.30
52275;DHT22;38228;50.940;4.024;2022-08-02T14:55:45;35.10;79.60
52275;DHT22;38228;50.940;4.024;2022-08-02T14:58:11;35.30;78.80
52275;DHT22;38228;50.940;4.024;2022-08-02T15:00:38;35.20;77.40
52275;DHT22;38228;50.940;4.024;2022-08-02T15:03:03;34.60;78.10
52275;DHT22;38228;50.940;4.024;2022-08-02T15:05:29;34.40;79.10
52275;DHT22;38228;50.940;4.024;2022-08-02T15:07:55;34.20;79.40
52275;DHT22;38228;50.940;4.024;2022-08-02T15:10:20;33.40;80.80
52275;DHT22;38228;50.940;4.024;2022-08-02T15:12:46;33.10;81.60
52275;DHT22;38228;50.940;4.024;2022-08-02T15:15:12;33.30;82.00
52275;DHT22;38228;50.940;4.024;2022-08-02T15:17:38;33.00;81.70
52275;DHT22;38228;50.940;4.024;2022-08-02T15:20:04;33.00;82.40
52275;DHT22;38228;50.940;4.024;2022-08-02T15:22:30;33.50;81.80
52275;DHT22;38228;50.940;4.024;2022-08-02T15:24:56;33.80;81.30
52275;DHT22;38228;50.940;4.024;2022-08-02T15:27:22;34.10;80.40
52275;DHT22;38228;50.940;4.024;2022-08-02T15:29:48;34.40;79.70
52275;DHT22;38228;50.940;4.024;2022-08-02T15:32:15;34.10;79.90
52275;DHT22;38228;50.940;4.024;2022-08-02T15:34:43;33.90;79.90
52275;DHT22;38228;50.940;4.024;2022-08-02T15:37:09;33.80;80.40
52275;DHT22;38228;50.940;4.024;2022-08-02T15:39:35;33.60;80.80
52275;DHT22;38228;50.940;4.024;2022-08-02T15:42:01;33.70;81.20
52275;DHT22;38228;50.940;4.024;2022-08-02T15:44:26;33.60;81.20
52275;DHT22;38228;50.940;4.024;2022-08-02T15:46:52;34.00;80.20
52275;DHT22;38228;50.940;4.024;2022-08-02T15:49:18;34.80;79.00
52275;DHT22;38228;50.940;4.024;2022-08-02T15:51:45;35.30;77.40
52275;DHT22;38228;50.940;4.024;2022-08-02T15:54:11;35.30;77.30
52275;DHT22;38228;50.940;4.024;2022-08-02T15:56:36;36.00;77.30
52275;DHT22;38228;50.940;4.024;2022-08-02T15:59:02;36.50;74.50
52275;DHT22;38228;50.940;4.024;2022-08-02T16:01:28;36.30;74.30
52275;DHT22;38228;50.940;4.024;2022-08-02T16:03:54;35.30;75.50
52275;DHT22;38228;50.940;4.024;2022-08-02T16:06:19;34.30;77.90